sensor_id;sensor_type;location;lat;lon;timestamp;noise_LAeq;noise_LA_min;noise_LA_max;noise_LA01;noise_LA95
66589;Laerm;53447;49.272;11.070;2023-07-30T00:02:02;39.59;35.82;43.19;;
66589;Laerm;53447;49.272;11.070;2023-07-30T00:04:27;41.56;36.38;44.10;;
66589;Laerm;53447;49.272;11.070;2023-07-30T00:06:53;39.62;35.19;42.13;;
66589;Laerm;53447;49.272;11.070;2023-07-30T00:09:18;39.10;33.54;41.99;;
66589;Laerm;53447;49.272;11.070;2023-07-30T00:11:43;39.59;33.81;42.57;;
66589;Laerm;53447;49.272;11.070;2023-07-30T00:14:08;40.41;35.19;42.81;;
66589;Laerm;53447;49.272;11.070;2023-07-30T00:16:33;41.81;37.71;46.33;;
66589;Laerm;53447;49.272;11.070;2023-07-30T00:18:59;40.25;36.20;43.77;;
66589;Laerm;53447;49.272;11.070;2023-07-30T00:21:24;39.79;34.95;43.19;;
66589;Laerm;53447;49.272;11.070;2023-07-30T00:23:49;39.53;35.62;42.44;;
66589;Laerm;53447;49.272;11.070;2023-07-30T00:26:14;39.61;34.44;42.27;;
66589;Laerm;53447;49.272;11.070;2023-07-30T00:28:40;39.80;34.16;44.04;;
66589;Laerm;53447;49.272;11.070;2023-07-30T00:31:05;41.30;36.68;44.30;;
66589;Laerm;53447;49.272;11.070;2023-07-30T00:33:30;40.53;35.62;43.04;;
66589;Laerm;53447;49.272;11.070;2023-07-30T00:35:55;39.38;35.82;42.93;;
66589;Laerm;53447;49.272;11.070;2023-07-30T00:38:21;39.45;35.41;42.40;;
66589;Laerm;53447;49.272;11.070;2023-07-30T00:40:46;39.47;33.86;41.94;;
66589;Laerm;53447;49.272;11.070;2023-07-30T00:43:11;39.25;35.62;41.21;;
66589;Laerm;53447;49.272;11.070;2023-07-30T00:45:37;39.29;35.48;41.54;;
66589;Laerm;53447;49.272;11.070;2023-07-30T00:48:03;39.47;34.70;42.13;;
66589;Laerm;53447;49.272;11.070;2023-07-30T00:50:29;39.22;34.44;41.32;;
66589;Laerm;53447;49.272;11.070;2023-07-30T00:52:54;39.19;33.86;41.15;;
66589;Laerm;53447;49.272;11.070;2023-07-30T00:55:19;39.43;34.60;50.44;;
66589;Laerm;53447;49.272;11.070;2023-07-30T00:57:44;42.40;37.17;53.53;;
66589;Laerm;53447;49.272;11.070;2023-07-30T01:00:10;42.65;39.80;51.03;;
66589;Laerm;53447;49.272;11.070;2023-07-30T01:02:36;42.33;39.72;54.54;;
66589;Laerm;53447;49.272;11.070;2023-07-30T01:05:02;42.06;39.12;51.08;;
66589;Laerm;53447;49.272;11.070;2023-07-30T01:07:29;42.31;39.56;53.81;;
66589;Laerm;53447;49.272;11.070;2023-07-30T01:09:54;44.11;39.21;57.18;;
66589;Laerm;53447;49.272;11.070;2023-07-30T01:12:19;44.36;41.26;57.88;;
66589;Laerm;53447;49.272;11.070;2023-07-30T01:14:45;44.19;40.85;57.17;;
66589;Laerm;53447;49.272;11.070;2023-07-30T01:17:11;44.38;40.97;64.92;;
66589;Laerm;53447;49.272;11.070;2023-07-30T01:19:36;45.55;41.64;58.87;;
66589;Laerm;53447;49.272;11.070;2023-07-30T01:22:02;47.37;42.73;65.61;;
66589;Laerm;53447;49.272;11.070;2023-07-30T01:24:27;46.43;42.08;58.61;;
66589;Laerm;53447;49.272;11.070;2023-07-30T01:26:56;45.31;41.64;56.49;;
66589;Laerm;53447;49.272;11.070;2023-07-30T01:30:14;47.55;42.85;61.52;;
66589;Laerm;53447;49.272;11.070;2023-07-30T01:32:10;48.95;43.40;66.20;;
66589;Laerm;53447;49.272;11.070;2023-07-30T01:34:36;50.43;45.43;63.51;;
66589;Laerm;53447;49.272;11.070;2023-07-30T01:37:02;50.42;45.34;62.97;;
66589;Laerm;53447;49.272;11.070;2023-07-30T01:39:28;50.96;46.18;62.02;;
66589;Laerm;53447;49.272;11.070;2023-07-30T01:41:54;52.10;47.53;70.19;;
66589;Laerm;53447;49.272;11.070;2023-07-30T01:44:19;51.82;47.68;62.04;;
66589;Laerm;53447;49.272;11.070;2023-07-30T01:46:44;51.78;47.93;63.04;;
66589;Laerm;53447;49.272;11.070;2023-07-30T01:49:10;52.22;47.88;65.22;;
66589;Laerm;53447;49.272;11.070;2023-07-30T01:51:35;52.96;48.22;65.04;;
66589;Laerm;53447;49.272;11.070;2023-07-30T01:54:00;53.50;49.15;69.45;;
66589;Laerm;53447;49.272;11.070;2023-07-30T01:56:25;53.72;49.33;69.71;;
66589;Laerm;53447;49.272;11.070;2023-07-30T01:58:50;54.21;49.44;67.81;;
66589;Laerm;53447;49.272;11.070;2023-07-30T02:01:16;54.68;50.21;67.67;;
66589;Laerm;53447;49.272;11.070;2023-07-30T02:03:41;54.86;50.91;65.30;;
66589;Laerm;53447;49.272;11.070;2023-07-30T02:06:06;53.37;49.08;65.45;;
66589;Laerm;53447;49.272;11.070;2023-07-30T02:08:31;53.48;47.64;67.43;;
66589;Laerm;53447;49.272;11.070;2023-07-30T02:10:57;49.79;46.41;64.37;;
66589;Laerm;53447;49.272;11.070;2023-07-30T02:13:23;44.10;39.56;56.42;;
66589;Laerm;53447;49.272;11.070;2023-07-30T02:15:49;41.57;38.18;44.98;;
66589;Laerm;53447;49.272;11.070;2023-07-30T02:18:14;41.35;37.02;44.58;;
66589;Laerm;53447;49.272;11.070;2023-07-30T02:20:39;41.42;35.19;43.37;;
66589;Laerm;53447;49.272;11.070;2023-07-30T02:23:04;40.94;35.62;44.10;;
66589;Laerm;53447;49.272;11.070;2023-07-30T02:25:30;40.83;36.37;46.92;;
66589;Laerm;53447;49.272;11.070;2023-07-30T02:27:55;40.97;36.20;49.34;;
66589;Laerm;53447;49.272;11.070;2023-07-30T02:30:21;40.71;36.02;44.25;;
66589;Laerm;53447;49.272;11.070;2023-07-30T02:32:46;40.80;35.62;43.22;;
66589;Laerm;53447;49.272;11.070;2023-07-30T02:35:11;40.97;36.87;49.05;;
66589;Laerm;53447;49.272;11.070;2023-07-30T02:37:36;40.97;36.55;46.24;;
66589;Laerm;53447;49.272;11.070;2023-07-30T02:40:01;41.02;37.17;45.37;;
66589;Laerm;53447;49.272;11.070;2023-07-30T02:42:29;40.97;36.71;47.69;;
66589;Laerm;53447;49.272;11.070;2023-07-30T02:44:55;41.00;35.62;44.33;;
66589;Laerm;53447;49.272;11.070;2023-07-30T02:47:20;41.04;35.82;45.52;;
66589;Laerm;53447;49.272;11.070;2023-07-30T02:49:45;41.04;36.20;43.44;;
66589;Laerm;53447;49.272;11.070;2023-07-30T02:52:10;41.26;36.38;48.32;;
66589;Laerm;53447;49.272;11.070;2023-07-30T02:54:35;41.10;36.71;49.52;;
66589;Laerm;53447;49.272;11.070;2023-07-30T02:57:01;41.12;36.55;43.37;;
66589;Laerm;53447;49.272;11.070;2023-07-30T02:59:26;41.06;36.55;47.60;;
66589;Laerm;53447;49.272;11.070;2023-07-30T03:01:52;41.10;36.55;47.28;;
66589;Laerm;53447;49.272;11.070;2023-07-30T03:04:17;41.24;36.38;44.41;;
66589;Laerm;53447;49.272;11.070;2023-07-30T03:06:42;42.09;36.87;48.66;;
66589;Laerm;53447;49.272;11.070;2023-07-30T03:09:08;42.73;39.03;48.46;;
66589;Laerm;53447;49.272;11.070;2023-07-30T03:11:33;41.34;38.08;50.11;;
66589;Laerm;53447;49.272;11.070;2023-07-30T03:13:58;41.16;37.02;45.86;;
66589;Laerm;53447;49.272;11.070;2023-07-30T03:16:23;41.19;37.02;46.18;;
66589;Laerm;53447;49.272;11.070;2023-07-30T03:18:49;41.17;37.45;43.12;;
66589;Laerm;53447;49.272;11.070;2023-07-30T03:21:14;41.03;36.02;44.63;;
66589;Laerm;53447;49.272;11.070;2023-07-30T03:23:39;40.95;35.62;42.84;;
66589;Laerm;53447;49.272;11.070;2023-07-30T03:26:06;42.10;39.04;46.27;;
66589;Laerm;53447;49.272;11.070;2023-07-30T03:28:31;40.99;36.20;42.66;;
66589;Laerm;53447;49.272;11.070;2023-07-30T03:30:56;40.91;36.02;42.85;;
66589;Laerm;53447;49.272;11.070;2023-07-30T03:33:22;41.45;36.71;44.07;;
66589;Laerm;53447;49.272;11.070;2023-07-30T03:35:47;41.25;36.55;43.51;;
66589;Laerm;53447;49.272;11.070;2023-07-30T03:38:13;41.27;37.02;46.24;;
66589;Laerm;53447;49.272;11.070;2023-07-30T03:40:38;42.42;37.02;48.05;;
66589;Laerm;53447;49.272;11.070;2023-07-30T03:43:03;41.29;37.45;46.82;;
66589;Laerm;53447;49.272;11.070;2023-07-30T03:45:28;41.79;36.55;51.48;;
66589;Laerm;53447;49.272;11.070;2023-07-30T03:47:54;40.96;35.82;47.37;;
66589;Laerm;53447;49.272;11.070;2023-07-30T03:50:19;41.72;38.20;47.79;;
66589;Laerm;53447;49.272;11.070;2023-07-30T03:52:44;41.75;37.45;47.91;;
66589;Laerm;53447;49.272;11.070;2023-07-30T03:55:09;41.40;36.20;58.12;;
66589;Laerm;53447;49.272;11.070;2023-07-30T03:57:35;43.11;36.87;55.27;;
66589;Laerm;53447;49.272;11.070;2023-07-30T04:00:00;42.41;38.68;58.41;;
66589;Laerm;53447;49.272;11.070;2023-07-30T04:02:25;45.01;40.72;53.81;;
66589;Laerm;53447;49.272;11.070;2023-07-30T04:04:50;41.72;36.38;51.66;;
66589;Laerm;53447;49.272;11.070;2023-07-30T04:07:16;42.02;36.38;53.43;;
66589;Laerm;53447;49.272;11.070;2023-07-30T04:09:41;41.59;35.82;55.17;;
66589;Laerm;53447;49.272;11.070;2023-07-30T04:12:06;42.42;36.55;56.73;;
66589;Laerm;53447;49.272;11.070;2023-07-30T04:14:32;42.04;39.64;49.18;;
66589;Laerm;53447;49.272;11.070;2023-07-30T04:16:57;41.16;36.71;48.34;;
66589;Laerm;53447;49.272;11.070;2023-07-30T04:19:22;41.60;37.45;49.91;;
66589;Laerm;53447;49.272;11.070;2023-07-30T04:21:47;42.24;40.46;50.59;;
66589;Laerm;53447;49.272;11.070;2023-07-30T04:24:12;42.39;40.53;47.83;;
66589;Laerm;53447;49.272;11.070;2023-07-30T04:26:38;42.97;40.39;49.87;;
66589;Laerm;53447;49.272;11.070;2023-07-30T04:29:03;42.31;39.72;49.12;;
66589;Laerm;53447;49.272;11.070;2023-07-30T04:31:28;42.76;40.79;49.27;;
66589;Laerm;53447;49.272;11.070;2023-07-30T04:33:53;42.34;39.80;53.21;;
66589;Laerm;53447;49.272;11.070;2023-07-30T04:36:18;51.04;40.46;69.02;;
66589;Laerm;53447;49.272;11.070;2023-07-30T04:38:44;42.42;36.02;65.34;;
66589;Laerm;53447;49.272;11.070;2023-07-30T04:41:09;41.68;36.02;52.78;;
66589;Laerm;53447;49.272;11.070;2023-07-30T04:43:34;41.62;36.20;51.62;;
66589;Laerm;53447;49.272;11.070;2023-07-30T04:45:59;42.46;36.87;54.76;;
66589;Laerm;53447;49.272;11.070;2023-07-30T04:48:25;41.47;36.38;57.43;;
66589;Laerm;53447;49.272;11.070;2023-07-30T04:50:50;41.32;36.02;48.74;;
66589;Laerm;53447;49.272;11.070;2023-07-30T04:53:15;42.76;37.96;66.53;;
66589;Laerm;53447;49.272;11.070;2023-07-30T04:55:42;51.64;36.02;68.68;;
66589;Laerm;53447;49.272;11.070;2023-07-30T04:58:07;42.56;37.31;58.34;;
66589;Laerm;53447;49.272;11.070;2023-07-30T05:00:32;41.20;37.58;47.41;;
66589;Laerm;53447;49.272;11.070;2023-07-30T05:02:57;41.57;37.17;52.86;;
66589;Laerm;53447;49.272;11.070;2023-07-30T05:05:23;41.57;36.87;46.46;;
66589;Laerm;53447;49.272;11.070;2023-07-30T05:07:48;41.73;37.45;60.08;;
66589;Laerm;53447;49.272;11.070;2023-07-30T05:10:13;41.66;37.45;52.71;;
66589;Laerm;53447;49.272;11.070;2023-07-30T05:12:38;41.75;37.84;55.92;;
66589;Laerm;53447;49.272;11.070;2023-07-30T05:15:04;41.54;38.31;45.62;;
66589;Laerm;53447;49.272;11.070;2023-07-30T05:17:29;41.21;36.55;52.15;;
66589;Laerm;53447;49.272;11.070;2023-07-30T05:19:55;40.90;35.82;44.72;;
66589;Laerm;53447;49.272;11.070;2023-07-30T05:22:20;40.99;36.02;50.92;;
66589;Laerm;53447;49.272;11.070;2023-07-30T05:24:45;40.79;35.19;56.58;;
66589;Laerm;53447;49.272;11.070;2023-07-30T05:27:11;40.90;36.55;58.80;;
66589;Laerm;53447;49.272;11.070;2023-07-30T05:29:36;42.05;36.55;58.30;;
66589;Laerm;53447;49.272;11.070;2023-07-30T05:32:01;53.17;37.58;73.61;;
66589;Laerm;53447;49.272;11.070;2023-07-30T05:34:26;41.96;37.45;54.00;;
66589;Laerm;53447;49.272;11.070;2023-07-30T05:36:52;43.42;36.38;63.62;;
66589;Laerm;53447;49.272;11.070;2023-07-30T05:39:17;41.53;36.38;58.58;;
66589;Laerm;53447;49.272;11.070;2023-07-30T05:41:42;41.19;37.71;54.90;;
66589;Laerm;53447;49.272;11.070;2023-07-30T05:44:07;40.89;36.02;58.60;;
66589;Laerm;53447;49.272;11.070;2023-07-30T05:46:33;41.39;36.55;50.84;;
66589;Laerm;53447;49.272;11.070;2023-07-30T05:48:58;41.61;37.02;57.24;;
66589;Laerm;53447;49.272;11.070;2023-07-30T05:51:23;42.93;38.20;64.13;;
66589;Laerm;53447;49.272;11.070;2023-07-30T05:53:48;41.95;38.42;58.37;;
66589;Laerm;53447;49.272;11.070;2023-07-30T05:56:13;41.36;36.55;54.92;;
66589;Laerm;53447;49.272;11.070;2023-07-30T05:58:39;41.15;37.31;53.09;;
66589;Laerm;53447;49.272;11.070;2023-07-30T06:01:04;41.87;38.63;53.07;;
66589;Laerm;53447;49.272;11.070;2023-07-30T06:03:29;41.44;38.83;53.31;;
66589;Laerm;53447;49.272;11.070;2023-07-30T06:05:56;41.34;38.31;52.64;;
66589;Laerm;53447;49.272;11.070;2023-07-30T06:08:21;41.05;38.31;53.10;;
66589;Laerm;53447;49.272;11.070;2023-07-30T06:10:47;42.18;38.53;58.81;;
66589;Laerm;53447;49.272;11.070;2023-07-30T06:13:12;42.27;39.12;62.25;;
66589;Laerm;53447;49.272;11.070;2023-07-30T06:15:37;44.10;38.20;68.93;;
66589;Laerm;53447;49.272;11.070;2023-07-30T06:18:03;49.74;37.96;68.27;;
66589;Laerm;53447;49.272;11.070;2023-07-30T06:20:28;44.82;36.87;72.77;;
66589;Laerm;53447;49.272;11.070;2023-07-30T06:22:53;42.92;36.55;62.02;;
66589;Laerm;53447;49.272;11.070;2023-07-30T06:25:18;49.34;37.17;65.93;;
66589;Laerm;53447;49.272;11.070;2023-07-30T06:27:44;41.88;35.62;58.43;;
66589;Laerm;53447;49.272;11.070;2023-07-30T06:30:09;42.80;35.41;70.10;;
66589;Laerm;53447;49.272;11.070;2023-07-30T06:32:35;51.17;35.19;69.40;;
66589;Laerm;53447;49.272;11.070;2023-07-30T06:35:00;41.87;35.41;67.69;;
66589;Laerm;53447;49.272;11.070;2023-07-30T06:37:25;41.87;35.19;63.95;;
66589;Laerm;53447;49.272;11.070;2023-07-30T06:39:50;42.39;35.41;59.47;;
66589;Laerm;53447;49.272;11.070;2023-07-30T06:42:16;43.17;35.19;67.95;;
66589;Laerm;53447;49.272;11.070;2023-07-30T06:44:41;43.66;35.82;68.05;;
66589;Laerm;53447;49.272;11.070;2023-07-30T06:47:06;40.26;34.70;51.00;;
66589;Laerm;53447;49.272;11.070;2023-07-30T06:49:31;41.32;35.19;56.00;;
66589;Laerm;53447;49.272;11.070;2023-07-30T06:51:59;44.17;35.19;63.04;;
66589;Laerm;53447;49.272;11.070;2023-07-30T06:54:24;42.91;36.20;60.74;;
66589;Laerm;53447;49.272;11.070;2023-07-30T06:56:49;40.55;35.62;59.32;;
66589;Laerm;53447;49.272;11.070;2023-07-30T06:59:15;39.72;35.48;51.22;;
66589;Laerm;53447;49.272;11.070;2023-07-30T07:01:40;40.33;36.02;55.11;;
66589;Laerm;53447;49.272;11.070;2023-07-30T07:04:05;41.52;36.87;53.07;;
66589;Laerm;53447;49.272;11.070;2023-07-30T07:06:30;39.98;36.20;52.85;;
66589;Laerm;53447;49.272;11.070;2023-07-30T07:08:55;41.31;35.82;52.41;;
66589;Laerm;53447;49.272;11.070;2023-07-30T07:11:21;42.29;36.87;65.99;;
66589;Laerm;53447;49.272;11.070;2023-07-30T07:13:46;45.50;37.71;68.27;;
66589;Laerm;53447;49.272;11.070;2023-07-30T07:16:11;49.96;34.44;67.93;;
66589;Laerm;53447;49.272;11.070;2023-07-30T07:18:36;39.28;34.44;49.00;;
66589;Laerm;53447;49.272;11.070;2023-07-30T07:21:02;41.37;34.44;56.14;;
66589;Laerm;53447;49.272;11.070;2023-07-30T07:23:27;39.86;34.95;48.35;;
66589;Laerm;53447;49.272;11.070;2023-07-30T07:25:52;40.95;36.02;57.53;;
66589;Laerm;53447;49.272;11.070;2023-07-30T07:28:18;42.22;34.95;69.09;;
66589;Laerm;53447;49.272;11.070;2023-07-30T07:30:43;50.94;36.71;66.23;;
66589;Laerm;53447;49.272;11.070;2023-07-30T07:33:09;48.25;39.12;69.79;;
66589;Laerm;53447;49.272;11.070;2023-07-30T07:35:37;46.74;36.03;64.08;;
66589;Laerm;53447;49.272;11.070;2023-07-30T07:38:02;46.94;37.17;63.61;;
66589;Laerm;53447;49.272;11.070;2023-07-30T07:40:28;41.84;37.31;54.33;;
66589;Laerm;53447;49.272;11.070;2023-07-30T07:42:54;41.16;37.58;50.75;;
66589;Laerm;53447;49.272;11.070;2023-07-30T07:45:19;45.90;36.55;59.06;;
66589;Laerm;53447;49.272;11.070;2023-07-30T07:47:44;49.40;43.44;56.92;;
66589;Laerm;53447;49.272;11.070;2023-07-30T07:50:10;48.70;43.54;58.97;;
66589;Laerm;53447;49.272;11.070;2023-07-30T07:52:35;47.83;37.02;70.00;;
66589;Laerm;53447;49.272;11.070;2023-07-30T07:55:00;58.84;37.96;78.66;;
66589;Laerm;53447;49.272;11.070;2023-07-30T07:57:25;50.98;36.38;69.73;;
66589;Laerm;53447;49.272;11.070;2023-07-30T07:59:51;42.33;36.38;59.04;;
66589;Laerm;53447;49.272;11.070;2023-07-30T08:02:16;43.46;37.96;60.38;;
66589;Laerm;53447;49.272;11.070;2023-07-30T08:04:41;42.66;38.20;51.11;;
66589;Laerm;53447;49.272;11.070;2023-07-30T08:07:07;41.71;37.58;54.53;;
66589;Laerm;53447;49.272;11.070;2023-07-30T08:09:32;42.28;38.83;48.81;;
66589;Laerm;53447;49.272;11.070;2023-07-30T08:11:57;41.14;37.58;54.03;;
66589;Laerm;53447;49.272;11.070;2023-07-30T08:14:23;40.81;36.71;55.82;;
66589;Laerm;53447;49.272;11.070;2023-07-30T08:16:49;52.14;37.31;71.15;;
66589;Laerm;53447;49.272;11.070;2023-07-30T08:19:14;39.95;36.71;50.17;;
66589;Laerm;53447;49.272;11.070;2023-07-30T08:21:39;41.98;37.96;55.30;;
66589;Laerm;53447;49.272;11.070;2023-07-30T08:24:04;41.81;37.17;55.82;;
66589;Laerm;53447;49.272;11.070;2023-07-30T08:26:30;41.67;37.02;47.31;;
66589;Laerm;53447;49.272;11.070;2023-07-30T08:28:55;51.04;36.71;69.87;;
66589;Laerm;53447;49.272;11.070;2023-07-30T08:31:20;42.02;39.12;49.66;;
66589;Laerm;53447;49.272;11.070;2023-07-30T08:33:45;43.76;38.20;55.46;;
66589;Laerm;53447;49.272;11.070;2023-07-30T08:36:11;50.83;37.71;64.34;;
66589;Laerm;53447;49.272;11.070;2023-07-30T08:38:36;39.77;36.38;47.62;;
66589;Laerm;53447;49.272;11.070;2023-07-30T08:41:01;39.48;35.41;44.07;;
66589;Laerm;53447;49.272;11.070;2023-07-30T08:43:26;39.74;36.20;52.72;;
66589;Laerm;53447;49.272;11.070;2023-07-30T08:45:51;48.43;35.62;66.71;;
66589;Laerm;53447;49.272;11.070;2023-07-30T08:48:17;41.50;37.84;45.66;;
66589;Laerm;53447;49.272;11.070;2023-07-30T08:50:42;40.87;36.87;45.64;;
66589;Laerm;53447;49.272;11.070;2023-07-30T08:53:08;49.93;36.38;67.93;;
66589;Laerm;53447;49.272;11.070;2023-07-30T08:55:34;41.57;37.17;50.21;;
66589;Laerm;53447;49.272;11.070;2023-07-30T08:58:01;46.16;36.20;63.69;;
66589;Laerm;53447;49.272;11.070;2023-07-30T09:00:28;49.56;36.82;68.28;;
66589;Laerm;53447;49.272;11.070;2023-07-30T09:02:56;45.68;39.03;56.91;;
66589;Laerm;53447;49.272;11.070;2023-07-30T09:05:23;41.89;37.45;55.98;;
66589;Laerm;53447;49.272;11.070;2023-07-30T09:07:50;41.38;37.02;51.05;;
66589;Laerm;53447;49.272;11.070;2023-07-30T09:10:15;40.56;36.87;51.23;;
66589;Laerm;53447;49.272;11.070;2023-07-30T09:12:40;40.53;37.45;54.78;;
66589;Laerm;53447;49.272;11.070;2023-07-30T09:15:06;41.12;37.02;47.84;;
66589;Laerm;53447;49.272;11.070;2023-07-30T09:17:32;49.07;36.71;66.64;;
66589;Laerm;53447;49.272;11.070;2023-07-30T09:20:01;42.32;38.31;47.27;;
66589;Laerm;53447;49.272;11.070;2023-07-30T09:22:28;43.73;41.64;55.04;;
66589;Laerm;53447;49.272;11.070;2023-07-30T09:24:54;42.30;39.21;51.61;;
66589;Laerm;53447;49.272;11.070;2023-07-30T09:27:20;41.89;39.12;49.23;;
66589;Laerm;53447;49.272;11.070;2023-07-30T09:29:51;42.14;39.12;51.07;;
66589;Laerm;53447;49.272;11.070;2023-07-30T09:32:17;42.82;38.07;54.53;;
66589;Laerm;53447;49.272;11.070;2023-07-30T09:34:44;41.81;38.53;55.28;;
66589;Laerm;53447;49.272;11.070;2023-07-30T09:37:09;42.18;38.53;54.54;;
66589;Laerm;53447;49.272;11.070;2023-07-30T09:39:36;42.00;39.30;48.85;;
66589;Laerm;53447;49.272;11.070;2023-07-30T09:42:02;43.03;39.88;56.92;;
66589;Laerm;53447;49.272;11.070;2023-07-30T09:44:27;43.30;38.93;57.07;;
66589;Laerm;53447;49.272;11.070;2023-07-30T09:46:52;42.01;37.58;59.72;;
66589;Laerm;53447;49.272;11.070;2023-07-30T09:49:18;41.71;37.96;61.17;;
66589;Laerm;53447;49.272;11.070;2023-07-30T09:51:43;40.72;37.58;45.21;;
66589;Laerm;53447;49.272;11.070;2023-07-30T09:54:12;40.55;37.17;46.24;;
66589;Laerm;53447;49.272;11.070;2023-07-30T09:56:38;40.53;35.82;53.25;;
66589;Laerm;53447;49.272;11.070;2023-07-30T09:59:07;51.50;38.53;67.52;;
66589;Laerm;53447;49.272;11.070;2023-07-30T10:01:38;57.83;45.56;66.08;;
66589;Laerm;53447;49.272;11.070;2023-07-30T10:04:06;59.26;52.55;67.08;;
66589;Laerm;53447;49.272;11.070;2023-07-30T10:06:32;55.52;48.63;63.76;;
66589;Laerm;53447;49.272;11.070;2023-07-30T10:08:58;49.63;44.65;57.18;;
66589;Laerm;53447;49.272;11.070;2023-07-30T10:11:24;49.14;44.04;56.64;;
66589;Laerm;53447;49.272;11.070;2023-07-30T10:13:50;58.36;51.70;66.83;;
66589;Laerm;53447;49.272;11.070;2023-07-30T10:16:16;59.22;48.44;68.03;;
66589;Laerm;53447;49.272;11.070;2023-07-30T10:18:42;49.56;42.04;68.18;;
66589;Laerm;53447;49.272;11.070;2023-07-30T10:21:08;43.06;39.88;54.22;;
66589;Laerm;53447;49.272;11.070;2023-07-30T10:23:45;41.95;39.29;54.37;;
66589;Laerm;53447;49.272;11.070;2023-07-30T10:26:10;42.66;38.31;60.62;;
66589;Laerm;53447;49.272;11.070;2023-07-30T10:28:36;43.45;38.73;58.83;;
66589;Laerm;53447;49.272;11.070;2023-07-30T10:31:06;43.14;39.12;58.25;;
66589;Laerm;53447;49.272;11.070;2023-07-30T10:36:09;49.86;41.15;66.06;;
66589;Laerm;53447;49.272;11.070;2023-07-30T10:38:34;51.82;41.94;63.31;;
66589;Laerm;53447;49.272;11.070;2023-07-30T10:43:35;43.60;40.85;64.00;;
66589;Laerm;53447;49.272;11.070;2023-07-30T10:46:01;43.30;39.98;60.46;;
66589;Laerm;53447;49.272;11.070;2023-07-30T10:48:30;43.12;40.11;62.03;;
66589;Laerm;53447;49.272;11.070;2023-07-30T10:50:58;41.97;39.12;53.37;;
66589;Laerm;53447;49.272;11.070;2023-07-30T10:53:23;42.55;38.53;57.66;;
66589;Laerm;53447;49.272;11.070;2023-07-30T10:55:48;42.84;37.31;53.15;;
66589;Laerm;53447;49.272;11.070;2023-07-30T10:58:13;48.64;38.28;65.70;;
66589;Laerm;53447;49.272;11.070;2023-07-30T11:00:40;47.17;36.71;69.82;;
66589;Laerm;53447;49.272;11.070;2023-07-30T11:03:05;40.97;36.02;56.56;;
66589;Laerm;53447;49.272;11.070;2023-07-30T11:05:30;40.40;37.45;49.48;;
66589;Laerm;53447;49.272;11.070;2023-07-30T11:07:56;40.47;37.45;49.73;;
66589;Laerm;53447;49.272;11.070;2023-07-30T11:10:21;42.25;36.38;60.05;;
66589;Laerm;53447;49.272;11.070;2023-07-30T11:12:48;42.42;37.84;55.28;;
66589;Laerm;53447;49.272;11.070;2023-07-30T11:15:14;40.93;37.17;63.47;;
66589;Laerm;53447;49.272;11.070;2023-07-30T11:17:39;40.69;37.61;49.16;;
66589;Laerm;53447;49.272;11.070;2023-07-30T11:20:05;52.04;38.08;71.81;;
66589;Laerm;53447;49.272;11.070;2023-07-30T11:22:32;41.15;38.18;53.70;;
66589;Laerm;53447;49.272;11.070;2023-07-30T11:24:58;41.30;38.08;47.77;;
66589;Laerm;53447;49.272;11.070;2023-07-30T11:27:23;56.39;38.53;80.94;;
66589;Laerm;53447;49.272;11.070;2023-07-30T11:29:57;40.75;36.38;50.53;;
66589;Laerm;53447;49.272;11.070;2023-07-30T11:32:22;40.41;37.17;47.59;;
66589;Laerm;53447;49.272;11.070;2023-07-30T11:34:54;43.17;38.53;57.59;;
66589;Laerm;53447;49.272;11.070;2023-07-30T11:37:20;42.55;38.08;55.76;;
66589;Laerm;53447;49.272;11.070;2023-07-30T11:39:45;54.72;38.83;74.42;;
66589;Laerm;53447;49.272;11.070;2023-07-30T11:42:11;47.89;38.63;65.36;;
66589;Laerm;53447;49.272;11.070;2023-07-30T11:44:37;43.81;38.63;63.94;;
66589;Laerm;53447;49.272;11.070;2023-07-30T11:47:05;42.30;38.08;63.34;;
66589;Laerm;53447;49.272;11.070;2023-07-30T11:49:31;50.00;39.56;68.00;;
66589;Laerm;53447;49.272;11.070;2023-07-30T11:52:06;41.89;39.48;47.23;;
66589;Laerm;53447;49.272;11.070;2023-07-30T11:54:32;42.76;38.63;56.67;;
66589;Laerm;53447;49.272;11.070;2023-07-30T11:56:57;42.36;38.73;57.62;;
66589;Laerm;53447;49.272;11.070;2023-07-30T11:59:23;40.79;37.71;48.44;;
66589;Laerm;53447;49.272;11.070;2023-07-30T12:01:48;40.76;37.17;47.69;;
66589;Laerm;53447;49.272;11.070;2023-07-30T12:04:13;50.46;37.71;68.99;;
66589;Laerm;53447;49.272;11.070;2023-07-30T12:09:11;47.90;38.08;65.30;;
66589;Laerm;53447;49.272;11.070;2023-07-30T12:11:43;48.66;37.96;66.95;;
66589;Laerm;53447;49.272;11.070;2023-07-30T12:14:09;50.12;38.53;68.03;;
66589;Laerm;53447;49.272;11.070;2023-07-30T12:16:34;51.23;38.08;69.74;;
66589;Laerm;53447;49.272;11.070;2023-07-30T12:18:59;41.56;38.42;53.26;;
66589;Laerm;53447;49.272;11.070;2023-07-30T12:21:24;41.90;37.58;55.60;;
66589;Laerm;53447;49.272;11.070;2023-07-30T12:23:50;52.36;37.84;70.92;;
66589;Laerm;53447;49.272;11.070;2023-07-30T12:26:15;50.69;38.20;71.71;;
66589;Laerm;53447;49.272;11.070;2023-07-30T12:28:40;54.04;38.20;75.56;;
66589;Laerm;53447;49.272;11.070;2023-07-30T12:31:05;40.96;36.55;50.55;;
66589;Laerm;53447;49.272;11.070;2023-07-30T12:33:31;40.22;37.31;44.13;;
66589;Laerm;53447;49.272;11.070;2023-07-30T12:35:56;41.40;37.45;55.17;;
66589;Laerm;53447;49.272;11.070;2023-07-30T12:38:22;41.55;37.31;52.82;;
66589;Laerm;53447;49.272;11.070;2023-07-30T12:40:47;41.40;38.58;46.70;;
66589;Laerm;53447;49.272;11.070;2023-07-30T12:43:12;40.74;37.31;44.19;;
66589;Laerm;53447;49.272;11.070;2023-07-30T12:45:38;41.90;38.31;55.64;;
66589;Laerm;53447;49.272;11.070;2023-07-30T12:48:04;43.17;38.08;59.75;;
66589;Laerm;53447;49.272;11.070;2023-07-30T12:50:29;44.72;37.84;62.86;;
66589;Laerm;53447;49.272;11.070;2023-07-30T12:52:54;49.88;38.20;75.00;;
66589;Laerm;53447;49.272;11.070;2023-07-30T12:55:20;46.20;38.42;68.19;;
66589;Laerm;53447;49.272;11.070;2023-07-30T12:57:45;41.46;37.49;52.46;;
66589;Laerm;53447;49.272;11.070;2023-07-30T13:00:10;48.51;39.12;72.35;;
66589;Laerm;53447;49.272;11.070;2023-07-30T13:02:36;51.93;40.53;73.84;;
66589;Laerm;53447;49.272;11.070;2023-07-30T13:05:01;50.54;39.64;68.26;;
66589;Laerm;53447;49.272;11.070;2023-07-30T13:07:28;43.82;39.96;62.00;;
66589;Laerm;53447;49.272;11.070;2023-07-30T13:10:03;45.09;40.32;63.27;;
66589;Laerm;53447;49.272;11.070;2023-07-30T13:12:29;44.90;39.30;66.52;;
66589;Laerm;53447;49.272;11.070;2023-07-30T13:14:54;43.00;38.53;56.27;;
66589;Laerm;53447;49.272;11.070;2023-07-30T13:17:19;41.22;38.28;54.61;;
66589;Laerm;53447;49.272;11.070;2023-07-30T13:19:44;50.40;38.83;68.64;;
66589;Laerm;53447;49.272;11.070;2023-07-30T13:22:09;41.67;38.20;56.70;;
66589;Laerm;53447;49.272;11.070;2023-07-30T13:24:35;41.35;37.71;55.85;;
66589;Laerm;53447;49.272;11.070;2023-07-30T13:27:01;51.10;38.93;63.83;;
66589;Laerm;53447;49.272;11.070;2023-07-30T13:29:26;43.61;40.32;57.01;;
66589;Laerm;53447;49.272;11.070;2023-07-30T13:31:51;55.17;41.48;80.51;;